KONL/ONL METAR and TAF weather

Enter ICAO airport designator
Station Type Date Time Source
KONL METAR 2019/10/23 02:15 UTC NOAA

KONL 230215Z AUTO 22004KT 10SM SCT110 06/00 A2983 RMK AO2 T00550000


Station Type Date Time Source
KONL Decoded METAR 2019/10/23 02:15 UTC NOAA

O'Neill / Baker Field, NE, United States (KONL) 42-28N 098-41W
Oct 22, 2019 - 10:15 PM EDT / 2019.10.23 0215 UTC
Wind: from the SW (220 degrees) at 5 MPH (4 KT):0
Visibility: 10 mile(s):0
Sky conditions: partly cloudy
Temperature: 41.9 F (5.5 C)
Dew Point: 32.0 F (0.0 C)
Relative Humidity: 67%
Pressure (altimeter): 29.83 in. Hg (1010 hPa)
ob: KONL 230215Z AUTO 22004KT 10SM SCT110 06/00 A2983 RMK AO2 T00550000
cycle: 2

Station Type Date Time Source
KONL TAF UTC NOAA

Error!

Example: see airport list